sensor_id;sensor_type;location;lat;lon;timestamp;P1;durP1;ratioP1;P2;durP2;ratioP2
81544;SDS011;70990;50.618;7.346;2023-06-26T00:00:18;7.57;;;3.53;;
81544;SDS011;70990;50.618;7.346;2023-06-26T00:03:05;6.93;;;3.50;;
81544;SDS011;70990;50.618;7.346;2023-06-26T00:05:51;9.43;;;3.88;;
81544;SDS011;70990;50.618;7.346;2023-06-26T00:08:26;7.28;;;3.80;;
81544;SDS011;70990;50.618;7.346;2023-06-26T00:11:12;10.77;;;3.95;;
81544;SDS011;70990;50.618;7.346;2023-06-26T00:14:14;7.82;;;4.10;;
81544;SDS011;70990;50.618;7.346;2023-06-26T00:16:57;7.75;;;3.58;;
81544;SDS011;70990;50.618;7.346;2023-06-26T00:19:49;7.13;;;3.55;;
81544;SDS011;70990;50.618;7.346;2023-06-26T00:22:53;7.00;;;3.65;;
81544;SDS011;70990;50.618;7.346;2023-06-26T00:25:33;7.18;;;3.72;;
81544;SDS011;70990;50.618;7.346;2023-06-26T00:28:25;7.03;;;3.53;;
81544;SDS011;70990;50.618;7.346;2023-06-26T00:31:02;7.85;;;3.83;;
81544;SDS011;70990;50.618;7.346;2023-06-26T00:34:07;7.55;;;3.45;;
81544;SDS011;70990;50.618;7.346;2023-06-26T00:37:18;10.00;;;3.88;;
81544;SDS011;70990;50.618;7.346;2023-06-26T00:39:47;7.05;;;3.67;;
81544;SDS011;70990;50.618;7.346;2023-06-26T00:42:18;7.50;;;4.28;;
81544;SDS011;70990;50.618;7.346;2023-06-26T00:44:56;7.65;;;3.45;;
81544;SDS011;70990;50.618;7.346;2023-06-26T00:47:45;6.90;;;3.35;;
81544;SDS011;70990;50.618;7.346;2023-06-26T00:50:14;10.02;;;4.20;;
81544;SDS011;70990;50.618;7.346;2023-06-26T00:53:02;7.80;;;3.53;;
81544;SDS011;70990;50.618;7.346;2023-06-26T00:56:04;6.60;;;3.30;;
81544;SDS011;70990;50.618;7.346;2023-06-26T00:58:38;7.60;;;3.78;;
81544;SDS011;70990;50.618;7.346;2023-06-26T01:01:20;7.43;;;3.20;;
81544;SDS011;70990;50.618;7.346;2023-06-26T01:04:02;7.00;;;3.42;;
81544;SDS011;70990;50.618;7.346;2023-06-26T01:06:55;7.57;;;4.05;;
81544;SDS011;70990;50.618;7.346;2023-06-26T01:09:56;10.23;;;4.25;;
81544;SDS011;70990;50.618;7.346;2023-06-26T01:12:42;7.07;;;3.75;;
81544;SDS011;70990;50.618;7.346;2023-06-26T01:15:12;6.53;;;3.63;;
81544;SDS011;70990;50.618;7.346;2023-06-26T01:21:13;10.10;;;3.60;;
81544;SDS011;70990;50.618;7.346;2023-06-26T01:29:43;9.15;;;3.42;;
81544;SDS011;70990;50.618;7.346;2023-06-26T01:32:20;6.30;;;3.20;;
81544;SDS011;70990;50.618;7.346;2023-06-26T01:38:30;7.63;;;3.83;;
81544;SDS011;70990;50.618;7.346;2023-06-26T01:41:12;7.50;;;4.07;;
81544;SDS011;70990;50.618;7.346;2023-06-26T01:44:28;6.60;;;3.25;;
81544;SDS011;70990;50.618;7.346;2023-06-26T01:47:02;6.78;;;3.50;;
81544;SDS011;70990;50.618;7.346;2023-06-26T01:55:53;6.55;;;3.20;;
81544;SDS011;70990;50.618;7.346;2023-06-26T01:58:43;7.60;;;3.50;;
81544;SDS011;70990;50.618;7.346;2023-06-26T02:01:36;6.43;;;3.10;;
81544;SDS011;70990;50.618;7.346;2023-06-26T02:04:02;8.63;;;3.67;;
81544;SDS011;70990;50.618;7.346;2023-06-26T02:06:48;7.47;;;3.45;;
81544;SDS011;70990;50.618;7.346;2023-06-26T02:12:19;8.20;;;3.70;;
81544;SDS011;70990;50.618;7.346;2023-06-26T02:15:34;7.35;;;3.47;;
81544;SDS011;70990;50.618;7.346;2023-06-26T02:18:48;6.53;;;3.10;;
81544;SDS011;70990;50.618;7.346;2023-06-26T02:22:26;7.30;;;3.10;;
81544;SDS011;70990;50.618;7.346;2023-06-26T02:28:12;8.25;;;3.90;;
81544;SDS011;70990;50.618;7.346;2023-06-26T02:31:14;7.13;;;3.88;;
81544;SDS011;70990;50.618;7.346;2023-06-26T02:34:00;7.93;;;4.55;;
81544;SDS011;70990;50.618;7.346;2023-06-26T02:36:46;9.18;;;3.97;;
81544;SDS011;70990;50.618;7.346;2023-06-26T02:39:36;6.55;;;3.10;;
81544;SDS011;70990;50.618;7.346;2023-06-26T02:42:09;10.48;;;3.58;;
81544;SDS011;70990;50.618;7.346;2023-06-26T02:44:35;6.50;;;2.83;;
81544;SDS011;70990;50.618;7.346;2023-06-26T02:47:07;6.70;;;3.35;;
81544;SDS011;70990;50.618;7.346;2023-06-26T02:49:54;7.55;;;3.83;;
81544;SDS011;70990;50.618;7.346;2023-06-26T02:52:42;8.05;;;4.45;;
81544;SDS011;70990;50.618;7.346;2023-06-26T02:55:23;7.65;;;3.55;;
81544;SDS011;70990;50.618;7.346;2023-06-26T02:57:57;8.73;;;4.03;;
81544;SDS011;70990;50.618;7.346;2023-06-26T03:00:28;9.35;;;4.57;;
81544;SDS011;70990;50.618;7.346;2023-06-26T03:03:00;7.05;;;3.95;;
81544;SDS011;70990;50.618;7.346;2023-06-26T03:05:34;6.75;;;3.78;;
81544;SDS011;70990;50.618;7.346;2023-06-26T03:08:30;10.80;;;4.50;;
81544;SDS011;70990;50.618;7.346;2023-06-26T03:10:59;8.23;;;3.90;;
81544;SDS011;70990;50.618;7.346;2023-06-26T03:13:52;8.27;;;5.05;;
81544;SDS011;70990;50.618;7.346;2023-06-26T03:16:18;9.10;;;4.45;;
81544;SDS011;70990;50.618;7.346;2023-06-26T03:18:49;8.73;;;4.40;;
81544;SDS011;70990;50.618;7.346;2023-06-26T03:22:01;7.68;;;4.30;;
81544;SDS011;70990;50.618;7.346;2023-06-26T03:24:29;8.07;;;4.22;;
81544;SDS011;70990;50.618;7.346;2023-06-26T03:27:02;7.82;;;3.80;;
81544;SDS011;70990;50.618;7.346;2023-06-26T03:29:31;8.57;;;4.57;;
81544;SDS011;70990;50.618;7.346;2023-06-26T03:32:02;7.95;;;4.45;;
81544;SDS011;70990;50.618;7.346;2023-06-26T03:34:36;7.78;;;4.10;;
81544;SDS011;70990;50.618;7.346;2023-06-26T03:37:15;7.97;;;4.57;;
81544;SDS011;70990;50.618;7.346;2023-06-26T03:39:42;8.35;;;4.28;;
81544;SDS011;70990;50.618;7.346;2023-06-26T03:42:18;7.55;;;3.33;;
81544;SDS011;70990;50.618;7.346;2023-06-26T03:45:00;7.55;;;3.90;;
81544;SDS011;70990;50.618;7.346;2023-06-26T03:47:31;9.77;;;3.88;;
81544;SDS011;70990;50.618;7.346;2023-06-26T03:50:03;6.30;;;3.05;;
81544;SDS011;70990;50.618;7.346;2023-06-26T03:52:36;7.68;;;3.65;;
81544;SDS011;70990;50.618;7.346;2023-06-26T03:55:09;7.70;;;3.33;;
81544;SDS011;70990;50.618;7.346;2023-06-26T03:57:38;8.23;;;3.28;;
81544;SDS011;70990;50.618;7.346;2023-06-26T04:00:08;7.00;;;3.30;;
81544;SDS011;70990;50.618;7.346;2023-06-26T04:02:43;7.50;;;3.70;;
81544;SDS011;70990;50.618;7.346;2023-06-26T04:05:15;7.45;;;4.00;;
81544;SDS011;70990;50.618;7.346;2023-06-26T04:07:42;7.65;;;4.20;;
81544;SDS011;70990;50.618;7.346;2023-06-26T04:10:22;7.25;;;3.80;;
81544;SDS011;70990;50.618;7.346;2023-06-26T04:12:55;7.68;;;3.75;;
81544;SDS011;70990;50.618;7.346;2023-06-26T04:15:40;7.63;;;3.97;;
81544;SDS011;70990;50.618;7.346;2023-06-26T04:21:11;9.35;;;3.80;;
81544;SDS011;70990;50.618;7.346;2023-06-26T04:23:43;6.65;;;3.20;;
81544;SDS011;70990;50.618;7.346;2023-06-26T04:26:09;7.38;;;4.00;;
81544;SDS011;70990;50.618;7.346;2023-06-26T04:28:49;8.45;;;3.70;;
81544;SDS011;70990;50.618;7.346;2023-06-26T04:31:53;7.38;;;3.83;;
81544;SDS011;70990;50.618;7.346;2023-06-26T04:34:27;9.07;;;3.88;;
81544;SDS011;70990;50.618;7.346;2023-06-26T04:37:04;7.13;;;3.38;;
81544;SDS011;70990;50.618;7.346;2023-06-26T04:39:37;7.15;;;3.63;;
81544;SDS011;70990;50.618;7.346;2023-06-26T04:42:40;7.65;;;3.38;;
81544;SDS011;70990;50.618;7.346;2023-06-26T04:45:12;8.00;;;3.65;;
81544;SDS011;70990;50.618;7.346;2023-06-26T04:47:41;8.40;;;3.58;;
81544;SDS011;70990;50.618;7.346;2023-06-26T04:50:07;7.05;;;3.75;;
81544;SDS011;70990;50.618;7.346;2023-06-26T04:53:03;7.60;;;3.58;;
81544;SDS011;70990;50.618;7.346;2023-06-26T04:55:45;8.45;;;3.38;;
81544;SDS011;70990;50.618;7.346;2023-06-26T04:58:18;7.85;;;3.63;;
81544;SDS011;70990;50.618;7.346;2023-06-26T05:00:50;6.65;;;3.58;;
81544;SDS011;70990;50.618;7.346;2023-06-26T05:03:27;7.47;;;3.97;;
81544;SDS011;70990;50.618;7.346;2023-06-26T05:06:15;7.78;;;3.25;;
81544;SDS011;70990;50.618;7.346;2023-06-26T05:08:52;8.73;;;3.40;;
81544;SDS011;70990;50.618;7.346;2023-06-26T05:11:36;7.60;;;4.10;;
81544;SDS011;70990;50.618;7.346;2023-06-26T05:14:03;7.88;;;3.55;;
81544;SDS011;70990;50.618;7.346;2023-06-26T05:16:45;7.15;;;3.60;;
81544;SDS011;70990;50.618;7.346;2023-06-26T05:19:14;6.65;;;3.42;;
81544;SDS011;70990;50.618;7.346;2023-06-26T05:21:54;7.35;;;3.17;;
81544;SDS011;70990;50.618;7.346;2023-06-26T05:24:39;6.78;;;3.53;;
81544;SDS011;70990;50.618;7.346;2023-06-26T05:27:30;6.88;;;3.67;;
81544;SDS011;70990;50.618;7.346;2023-06-26T05:30:03;7.93;;;3.70;;
81544;SDS011;70990;50.618;7.346;2023-06-26T05:35:28;7.47;;;3.88;;
81544;SDS011;70990;50.618;7.346;2023-06-26T05:38:03;7.10;;;3.70;;
81544;SDS011;70990;50.618;7.346;2023-06-26T05:41:07;7.20;;;3.40;;
81544;SDS011;70990;50.618;7.346;2023-06-26T05:43:37;6.88;;;3.75;;
81544;SDS011;70990;50.618;7.346;2023-06-26T05:46:23;7.78;;;3.85;;
81544;SDS011;70990;50.618;7.346;2023-06-26T05:48:51;6.05;;;3.40;;
81544;SDS011;70990;50.618;7.346;2023-06-26T05:51:40;7.63;;;4.03;;
81544;SDS011;70990;50.618;7.346;2023-06-26T05:54:37;8.27;;;3.65;;
81544;SDS011;70990;50.618;7.346;2023-06-26T05:57:14;8.55;;;4.15;;
81544;SDS011;70990;50.618;7.346;2023-06-26T05:59:49;9.13;;;3.97;;
81544;SDS011;70990;50.618;7.346;2023-06-26T06:02:19;7.65;;;3.75;;
81544;SDS011;70990;50.618;7.346;2023-06-26T06:04:48;8.18;;;4.03;;
81544;SDS011;70990;50.618;7.346;2023-06-26T06:07:19;8.05;;;4.00;;
81544;SDS011;70990;50.618;7.346;2023-06-26T06:09:51;7.28;;;3.75;;
81544;SDS011;70990;50.618;7.346;2023-06-26T06:12:26;10.20;;;4.47;;
81544;SDS011;70990;50.618;7.346;2023-06-26T06:15:05;9.02;;;4.07;;
81544;SDS011;70990;50.618;7.346;2023-06-26T06:17:40;10.07;;;4.22;;
81544;SDS011;70990;50.618;7.346;2023-06-26T06:20:09;7.03;;;3.70;;
81544;SDS011;70990;50.618;7.346;2023-06-26T06:22:56;9.23;;;4.47;;
81544;SDS011;70990;50.618;7.346;2023-06-26T06:25:34;6.95;;;3.67;;
81544;SDS011;70990;50.618;7.346;2023-06-26T06:28:09;7.60;;;4.00;;
81544;SDS011;70990;50.618;7.346;2023-06-26T06:30:57;7.88;;;3.63;;
81544;SDS011;70990;50.618;7.346;2023-06-26T06:33:40;7.70;;;3.55;;
81544;SDS011;70990;50.618;7.346;2023-06-26T06:36:24;6.65;;;3.42;;
81544;SDS011;70990;50.618;7.346;2023-06-26T06:38:56;6.75;;;3.38;;
81544;SDS011;70990;50.618;7.346;2023-06-26T06:41:28;7.15;;;3.35;;
81544;SDS011;70990;50.618;7.346;2023-06-26T06:43:56;6.55;;;3.28;;
81544;SDS011;70990;50.618;7.346;2023-06-26T06:46:47;7.85;;;3.58;;
81544;SDS011;70990;50.618;7.346;2023-06-26T06:49:16;6.38;;;3.15;;
81544;SDS011;70990;50.618;7.346;2023-06-26T06:51:48;10.75;;;3.72;;
81544;SDS011;70990;50.618;7.346;2023-06-26T06:54:19;7.15;;;3.22;;
81544;SDS011;70990;50.618;7.346;2023-06-26T06:56:54;6.88;;;3.42;;
81544;SDS011;70990;50.618;7.346;2023-06-26T06:59:30;7.60;;;3.30;;
81544;SDS011;70990;50.618;7.346;2023-06-26T07:02:01;8.40;;;3.28;;
81544;SDS011;70990;50.618;7.346;2023-06-26T07:04:35;6.60;;;3.03;;
81544;SDS011;70990;50.618;7.346;2023-06-26T07:07:18;8.95;;;3.30;;
81544;SDS011;70990;50.618;7.346;2023-06-26T07:09:50;8.43;;;3.03;;
81544;SDS011;70990;50.618;7.346;2023-06-26T07:12:26;6.40;;;2.88;;
81544;SDS011;70990;50.618;7.346;2023-06-26T07:14:57;7.38;;;2.85;;
81544;SDS011;70990;50.618;7.346;2023-06-26T07:17:51;8.18;;;3.15;;
81544;SDS011;70990;50.618;7.346;2023-06-26T07:20:35;9.90;;;3.38;;
81544;SDS011;70990;50.618;7.346;2023-06-26T07:23:09;5.90;;;2.97;;
81544;SDS011;70990;50.618;7.346;2023-06-26T07:25:40;7.57;;;2.88;;
81544;SDS011;70990;50.618;7.346;2023-06-26T07:28:12;13.13;;;3.47;;
81544;SDS011;70990;50.618;7.346;2023-06-26T07:31:15;6.65;;;2.83;;
81544;SDS011;70990;50.618;7.346;2023-06-26T07:33:53;8.95;;;3.05;;
81544;SDS011;70990;50.618;7.346;2023-06-26T07:36:29;6.43;;;2.70;;
81544;SDS011;70990;50.618;7.346;2023-06-26T07:39:14;7.57;;;3.30;;
81544;SDS011;70990;50.618;7.346;2023-06-26T07:41:45;7.60;;;3.50;;
81544;SDS011;70990;50.618;7.346;2023-06-26T07:44:30;8.18;;;3.42;;
81544;SDS011;70990;50.618;7.346;2023-06-26T07:47:05;7.47;;;3.00;;
81544;SDS011;70990;50.618;7.346;2023-06-26T07:49:46;10.63;;;4.30;;
81544;SDS011;70990;50.618;7.346;2023-06-26T07:52:20;7.55;;;3.55;;
81544;SDS011;70990;50.618;7.346;2023-06-26T07:55:19;13.30;;;3.92;;
81544;SDS011;70990;50.618;7.346;2023-06-26T08:00:59;10.13;;;3.30;;
81544;SDS011;70990;50.618;7.346;2023-06-26T08:03:52;8.70;;;3.45;;
81544;SDS011;70990;50.618;7.346;2023-06-26T08:06:30;12.38;;;3.72;;
81544;SDS011;70990;50.618;7.346;2023-06-26T08:09:10;10.65;;;4.00;;
81544;SDS011;70990;50.618;7.346;2023-06-26T08:11:38;15.32;;;4.57;;
81544;SDS011;70990;50.618;7.346;2023-06-26T08:14:12;52.53;;;7.13;;
81544;SDS011;70990;50.618;7.346;2023-06-26T08:16:50;8.00;;;3.90;;
81544;SDS011;70990;50.618;7.346;2023-06-26T08:19:20;11.15;;;4.13;;
81544;SDS011;70990;50.618;7.346;2023-06-26T08:22:09;7.68;;;3.10;;
81544;SDS011;70990;50.618;7.346;2023-06-26T08:24:41;10.50;;;3.92;;
81544;SDS011;70990;50.618;7.346;2023-06-26T08:30:26;13.15;;;4.50;;
81544;SDS011;70990;50.618;7.346;2023-06-26T08:33:14;9.40;;;4.03;;
81544;SDS011;70990;50.618;7.346;2023-06-26T08:35:55;11.38;;;4.60;;
81544;SDS011;70990;50.618;7.346;2023-06-26T08:38:44;8.20;;;3.60;;
81544;SDS011;70990;50.618;7.346;2023-06-26T08:41:36;10.07;;;4.00;;
81544;SDS011;70990;50.618;7.346;2023-06-26T08:44:14;8.57;;;4.13;;
81544;SDS011;70990;50.618;7.346;2023-06-26T08:46:44;8.75;;;3.40;;
81544;SDS011;70990;50.618;7.346;2023-06-26T08:49:37;7.43;;;3.55;;
81544;SDS011;70990;50.618;7.346;2023-06-26T08:52:31;8.75;;;4.00;;
81544;SDS011;70990;50.618;7.346;2023-06-26T08:55:08;9.30;;;4.65;;
81544;SDS011;70990;50.618;7.346;2023-06-26T08:57:36;11.18;;;4.60;;
81544;SDS011;70990;50.618;7.346;2023-06-26T09:00:08;9.93;;;3.53;;
81544;SDS011;70990;50.618;7.346;2023-06-26T09:02:59;11.07;;;3.97;;
81544;SDS011;70990;50.618;7.346;2023-06-26T09:05:34;8.13;;;4.20;;
81544;SDS011;70990;50.618;7.346;2023-06-26T09:08:10;11.95;;;4.40;;
81544;SDS011;70990;50.618;7.346;2023-06-26T09:10:36;7.55;;;3.25;;
81544;SDS011;70990;50.618;7.346;2023-06-26T09:13:19;8.25;;;3.88;;
81544;SDS011;70990;50.618;7.346;2023-06-26T09:18:56;8.23;;;3.40;;
81544;SDS011;70990;50.618;7.346;2023-06-26T09:21:53;6.53;;;3.20;;
81544;SDS011;70990;50.618;7.346;2023-06-26T09:24:29;9.23;;;2.92;;
81544;SDS011;70990;50.618;7.346;2023-06-26T09:27:07;9.77;;;3.00;;
81544;SDS011;70990;50.618;7.346;2023-06-26T09:29:39;9.27;;;3.25;;
81544;SDS011;70990;50.618;7.346;2023-06-26T09:32:15;12.43;;;3.45;;
81544;SDS011;70990;50.618;7.346;2023-06-26T09:35:07;8.15;;;3.15;;
81544;SDS011;70990;50.618;7.346;2023-06-26T09:37:47;6.85;;;3.33;;
81544;SDS011;70990;50.618;7.346;2023-06-26T09:40:18;13.30;;;3.30;;
81544;SDS011;70990;50.618;7.346;2023-06-26T09:42:53;10.68;;;3.85;;
81544;SDS011;70990;50.618;7.346;2023-06-26T09:45:22;13.30;;;3.65;;
81544;SDS011;70990;50.618;7.346;2023-06-26T09:47:59;7.90;;;2.72;;
81544;SDS011;70990;50.618;7.346;2023-06-26T09:51:13;8.75;;;3.10;;
81544;SDS011;70990;50.618;7.346;2023-06-26T09:53:51;9.05;;;2.75;;
81544;SDS011;70990;50.618;7.346;2023-06-26T09:56:34;9.02;;;2.80;;
81544;SDS011;70990;50.618;7.346;2023-06-26T09:59:25;7.07;;;2.90;;
81544;SDS011;70990;50.618;7.346;2023-06-26T10:05:20;7.35;;;2.92;;
81544;SDS011;70990;50.618;7.346;2023-06-26T10:08:05;9.45;;;3.03;;
81544;SDS011;70990;50.618;7.346;2023-06-26T10:10:49;9.35;;;2.95;;
81544;SDS011;70990;50.618;7.346;2023-06-26T10:13:36;5.50;;;2.10;;
81544;SDS011;70990;50.618;7.346;2023-06-26T10:16:21;8.70;;;2.72;;
81544;SDS011;70990;50.618;7.346;2023-06-26T10:19:14;8.60;;;2.35;;
81544;SDS011;70990;50.618;7.346;2023-06-26T10:22:00;7.28;;;2.20;;
81544;SDS011;70990;50.618;7.346;2023-06-26T10:28:08;5.47;;;1.88;;
81544;SDS011;70990;50.618;7.346;2023-06-26T10:30:54;5.00;;;1.85;;
81544;SDS011;70990;50.618;7.346;2023-06-26T10:33:31;6.82;;;2.05;;
81544;SDS011;70990;50.618;7.346;2023-06-26T10:36:17;10.10;;;3.45;;
81544;SDS011;70990;50.618;7.346;2023-06-26T10:38:58;7.57;;;2.45;;
81544;SDS011;70990;50.618;7.346;2023-06-26T10:41:40;5.35;;;1.92;;
81544;SDS011;70990;50.618;7.346;2023-06-26T10:44:16;6.18;;;1.52;;
81544;SDS011;70990;50.618;7.346;2023-06-26T10:46:55;6.25;;;2.22;;
81544;SDS011;70990;50.618;7.346;2023-06-26T10:49:30;5.90;;;1.70;;
81544;SDS011;70990;50.618;7.346;2023-06-26T10:52:36;4.95;;;2.00;;
81544;SDS011;70990;50.618;7.346;2023-06-26T10:55:16;6.53;;;1.88;;
81544;SDS011;70990;50.618;7.346;2023-06-26T10:57:44;6.00;;;1.63;;
81544;SDS011;70990;50.618;7.346;2023-06-26T11:00:37;6.20;;;2.15;;
81544;SDS011;70990;50.618;7.346;2023-06-26T11:03:36;6.50;;;2.35;;
81544;SDS011;70990;50.618;7.346;2023-06-26T11:06:18;5.90;;;3.25;;
81544;SDS011;70990;50.618;7.346;2023-06-26T11:09:14;7.57;;;2.00;;
81544;SDS011;70990;50.618;7.346;2023-06-26T11:14:48;5.65;;;2.00;;
81544;SDS011;70990;50.618;7.346;2023-06-26T11:17:37;6.78;;;1.98;;
81544;SDS011;70990;50.618;7.346;2023-06-26T11:20:39;7.10;;;2.00;;
81544;SDS011;70990;50.618;7.346;2023-06-26T11:23:14;6.82;;;2.35;;
81544;SDS011;70990;50.618;7.346;2023-06-26T11:25:56;4.30;;;1.75;;
81544;SDS011;70990;50.618;7.346;2023-06-26T11:28:45;6.00;;;1.70;;
81544;SDS011;70990;50.618;7.346;2023-06-26T11:31:43;9.85;;;2.00;;
81544;SDS011;70990;50.618;7.346;2023-06-26T11:34:23;6.57;;;1.70;;
81544;SDS011;70990;50.618;7.346;2023-06-26T11:37:11;6.68;;;1.65;;
81544;SDS011;70990;50.618;7.346;2023-06-26T11:39:58;7.10;;;1.83;;
81544;SDS011;70990;50.618;7.346;2023-06-26T11:42:55;5.22;;;1.98;;
81544;SDS011;70990;50.618;7.346;2023-06-26T11:45:36;3.95;;;1.40;;
81544;SDS011;70990;50.618;7.346;2023-06-26T11:48:04;7.25;;;1.88;;
81544;SDS011;70990;50.618;7.346;2023-06-26T11:50:52;4.18;;;1.30;;
81544;SDS011;70990;50.618;7.346;2023-06-26T11:54:02;4.38;;;1.13;;
81544;SDS011;70990;50.618;7.346;2023-06-26T11:56:51;5.07;;;1.50;;
81544;SDS011;70990;50.618;7.346;2023-06-26T12:03:03;4.47;;;1.20;;
81544;SDS011;70990;50.618;7.346;2023-06-26T12:05:46;4.25;;;1.40;;
81544;SDS011;70990;50.618;7.346;2023-06-26T12:08:38;4.93;;;1.40;;
81544;SDS011;70990;50.618;7.346;2023-06-26T12:11:31;6.75;;;1.40;;
81544;SDS011;70990;50.618;7.346;2023-06-26T12:19:59;3.25;;;1.30;;
81544;SDS011;70990;50.618;7.346;2023-06-26T12:22:34;4.20;;;1.40;;
81544;SDS011;70990;50.618;7.346;2023-06-26T12:25:21;6.13;;;1.70;;
81544;SDS011;70990;50.618;7.346;2023-06-26T12:28:21;6.60;;;1.83;;
81544;SDS011;70990;50.618;7.346;2023-06-26T12:31:25;4.85;;;1.40;;
81544;SDS011;70990;50.618;7.346;2023-06-26T12:37:20;5.78;;;1.65;;
81544;SDS011;70990;50.618;7.346;2023-06-26T12:43:35;4.55;;;1.73;;
81544;SDS011;70990;50.618;7.346;2023-06-26T12:46:38;4.80;;;1.50;;
81544;SDS011;70990;50.618;7.346;2023-06-26T12:49:12;8.23;;;1.70;;
81544;SDS011;70990;50.618;7.346;2023-06-26T12:51:57;4.50;;;1.50;;
81544;SDS011;70990;50.618;7.346;2023-06-26T12:54:38;5.55;;;1.40;;
81544;SDS011;70990;50.618;7.346;2023-06-26T12:57:31;4.47;;;1.60;;
81544;SDS011;70990;50.618;7.346;2023-06-26T13:00:22;4.70;;;1.40;;
81544;SDS011;70990;50.618;7.346;2023-06-26T13:03:00;9.10;;;1.92;;
81544;SDS011;70990;50.618;7.346;2023-06-26T13:06:25;6.55;;;1.55;;
81544;SDS011;70990;50.618;7.346;2023-06-26T13:09:06;4.32;;;1.42;;
81544;SDS011;70990;50.618;7.346;2023-06-26T13:11:39;5.43;;;1.52;;
81544;SDS011;70990;50.618;7.346;2023-06-26T13:14:09;3.35;;;1.50;;
81544;SDS011;70990;50.618;7.346;2023-06-26T13:16:50;4.85;;;1.33;;
81544;SDS011;70990;50.618;7.346;2023-06-26T13:19:22;8.43;;;1.40;;
81544;SDS011;70990;50.618;7.346;2023-06-26T13:22:09;6.28;;;1.60;;
81544;SDS011;70990;50.618;7.346;2023-06-26T13:24:48;3.53;;;1.27;;
81544;SDS011;70990;50.618;7.346;2023-06-26T13:33:03;7.00;;;1.65;;
81544;SDS011;70990;50.618;7.346;2023-06-26T13:35:56;6.22;;;1.40;;
81544;SDS011;70990;50.618;7.346;2023-06-26T13:38:41;3.95;;;1.65;;
81544;SDS011;70990;50.618;7.346;2023-06-26T13:41:10;9.48;;;2.22;;
81544;SDS011;70990;50.618;7.346;2023-06-26T13:43:59;3.33;;;1.55;;
81544;SDS011;70990;50.618;7.346;2023-06-26T13:46:37;4.47;;;1.30;;
81544;SDS011;70990;50.618;7.346;2023-06-26T13:49:12;5.07;;;1.38;;
81544;SDS011;70990;50.618;7.346;2023-06-26T13:51:47;6.72;;;1.85;;
81544;SDS011;70990;50.618;7.346;2023-06-26T13:54:47;5.60;;;1.40;;
81544;SDS011;70990;50.618;7.346;2023-06-26T13:57:13;7.38;;;1.55;;
81544;SDS011;70990;50.618;7.346;2023-06-26T13:59:48;5.28;;;1.30;;
81544;SDS011;70990;50.618;7.346;2023-06-26T14:02:17;6.95;;;1.27;;
81544;SDS011;70990;50.618;7.346;2023-06-26T14:04:45;6.68;;;1.45;;
81544;SDS011;70990;50.618;7.346;2023-06-26T14:07:14;4.93;;;1.33;;
81544;SDS011;70990;50.618;7.346;2023-06-26T14:09:42;3.80;;;1.48;;
81544;SDS011;70990;50.618;7.346;2023-06-26T14:12:08;4.72;;;1.10;;
81544;SDS011;70990;50.618;7.346;2023-06-26T14:14:37;4.20;;;1.27;;
81544;SDS011;70990;50.618;7.346;2023-06-26T14:17:11;3.25;;;1.23;;
81544;SDS011;70990;50.618;7.346;2023-06-26T14:19:51;4.13;;;1.50;;
81544;SDS011;70990;50.618;7.346;2023-06-26T14:22:18;11.00;;;1.63;;
81544;SDS011;70990;50.618;7.346;2023-06-26T14:24:45;7.00;;;1.40;;
81544;SDS011;70990;50.618;7.346;2023-06-26T14:27:16;4.72;;;1.35;;
81544;SDS011;70990;50.618;7.346;2023-06-26T14:29:42;5.18;;;1.20;;
81544;SDS011;70990;50.618;7.346;2023-06-26T14:32:08;7.60;;;1.63;;
81544;SDS011;70990;50.618;7.346;2023-06-26T14:34:36;4.55;;;1.33;;
81544;SDS011;70990;50.618;7.346;2023-06-26T14:37:08;4.38;;;1.30;;
81544;SDS011;70990;50.618;7.346;2023-06-26T14:39:33;6.60;;;1.58;;
81544;SDS011;70990;50.618;7.346;2023-06-26T14:41:59;3.05;;;1.27;;
81544;SDS011;70990;50.618;7.346;2023-06-26T14:44:27;2.75;;;1.00;;
81544;SDS011;70990;50.618;7.346;2023-06-26T14:46:52;5.65;;;1.50;;
81544;SDS011;70990;50.618;7.346;2023-06-26T14:49:25;6.32;;;1.33;;
81544;SDS011;70990;50.618;7.346;2023-06-26T14:52:00;8.63;;;1.40;;
81544;SDS011;70990;50.618;7.346;2023-06-26T14:54:34;5.35;;;2.30;;
81544;SDS011;70990;50.618;7.346;2023-06-26T14:57:34;4.78;;;1.02;;
81544;SDS011;70990;50.618;7.346;2023-06-26T15:00:05;3.47;;;1.40;;
81544;SDS011;70990;50.618;7.346;2023-06-26T15:02:51;5.05;;;1.77;;
81544;SDS011;70990;50.618;7.346;2023-06-26T15:05:29;4.05;;;1.42;;
81544;SDS011;70990;50.618;7.346;2023-06-26T15:08:17;8.07;;;1.60;;
81544;SDS011;70990;50.618;7.346;2023-06-26T15:10:56;3.50;;;1.20;;
81544;SDS011;70990;50.618;7.346;2023-06-26T15:13:32;3.83;;;1.30;;
81544;SDS011;70990;50.618;7.346;2023-06-26T15:15:58;2.67;;;1.17;;
81544;SDS011;70990;50.618;7.346;2023-06-26T15:18:38;4.18;;;1.20;;
81544;SDS011;70990;50.618;7.346;2023-06-26T15:21:34;6.90;;;1.40;;
81544;SDS011;70990;50.618;7.346;2023-06-26T15:24:03;7.03;;;1.10;;
81544;SDS011;70990;50.618;7.346;2023-06-26T15:26:42;4.03;;;1.13;;
81544;SDS011;70990;50.618;7.346;2023-06-26T15:29:31;7.40;;;1.52;;
81544;SDS011;70990;50.618;7.346;2023-06-26T15:32:00;3.75;;;1.15;;
81544;SDS011;70990;50.618;7.346;2023-06-26T15:34:35;4.80;;;1.23;;
81544;SDS011;70990;50.618;7.346;2023-06-26T15:37:05;5.22;;;1.33;;
81544;SDS011;70990;50.618;7.346;2023-06-26T15:39:36;5.72;;;1.23;;
81544;SDS011;70990;50.618;7.346;2023-06-26T15:42:03;3.17;;;1.27;;
81544;SDS011;70990;50.618;7.346;2023-06-26T15:44:45;4.63;;;1.40;;
81544;SDS011;70990;50.618;7.346;2023-06-26T15:47:27;4.18;;;1.30;;
81544;SDS011;70990;50.618;7.346;2023-06-26T15:50:11;6.32;;;1.20;;
81544;SDS011;70990;50.618;7.346;2023-06-26T15:52:47;5.65;;;1.40;;
81544;SDS011;70990;50.618;7.346;2023-06-26T15:55:31;3.35;;;1.23;;
81544;SDS011;70990;50.618;7.346;2023-06-26T15:58:45;4.53;;;1.30;;
81544;SDS011;70990;50.618;7.346;2023-06-26T16:01:40;5.05;;;1.10;;
81544;SDS011;70990;50.618;7.346;2023-06-26T16:04:21;3.65;;;1.08;;
81544;SDS011;70990;50.618;7.346;2023-06-26T16:07:10;5.55;;;1.52;;
81544;SDS011;70990;50.618;7.346;2023-06-26T16:10:25;4.10;;;1.30;;
81544;SDS011;70990;50.618;7.346;2023-06-26T16:13:34;5.97;;;1.52;;
81544;SDS011;70990;50.618;7.346;2023-06-26T16:16:43;3.92;;;1.50;;
81544;SDS011;70990;50.618;7.346;2023-06-26T16:19:45;6.43;;;1.50;;
81544;SDS011;70990;50.618;7.346;2023-06-26T16:22:45;5.90;;;1.40;;
81544;SDS011;70990;50.618;7.346;2023-06-26T16:26:23;6.53;;;1.40;;
81544;SDS011;70990;50.618;7.346;2023-06-26T16:29:31;7.03;;;1.48;;
81544;SDS011;70990;50.618;7.346;2023-06-26T16:32:49;5.45;;;1.48;;
81544;SDS011;70990;50.618;7.346;2023-06-26T16:35:55;5.45;;;1.33;;
81544;SDS011;70990;50.618;7.346;2023-06-26T16:39:04;4.53;;;1.40;;
81544;SDS011;70990;50.618;7.346;2023-06-26T16:42:02;8.70;;;1.40;;
81544;SDS011;70990;50.618;7.346;2023-06-26T16:45:00;3.05;;;1.13;;
81544;SDS011;70990;50.618;7.346;2023-06-26T16:50:48;4.78;;;1.30;;
81544;SDS011;70990;50.618;7.346;2023-06-26T16:53:43;7.78;;;1.50;;
81544;SDS011;70990;50.618;7.346;2023-06-26T16:56:56;6.60;;;1.48;;
81544;SDS011;70990;50.618;7.346;2023-06-26T17:03:20;6.47;;;1.40;;
81544;SDS011;70990;50.618;7.346;2023-06-26T17:06:09;6.90;;;1.45;;
81544;SDS011;70990;50.618;7.346;2023-06-26T17:09:00;3.50;;;1.27;;
81544;SDS011;70990;50.618;7.346;2023-06-26T17:11:42;4.07;;;1.30;;
81544;SDS011;70990;50.618;7.346;2023-06-26T17:14:27;4.18;;;1.42;;
81544;SDS011;70990;50.618;7.346;2023-06-26T17:17:28;5.57;;;1.02;;
81544;SDS011;70990;50.618;7.346;2023-06-26T17:20:09;5.55;;;1.25;;
81544;SDS011;70990;50.618;7.346;2023-06-26T17:23:39;5.35;;;1.52;;
81544;SDS011;70990;50.618;7.346;2023-06-26T17:26:10;5.07;;;1.45;;
81544;SDS011;70990;50.618;7.346;2023-06-26T17:32:20;7.28;;;1.50;;
81544;SDS011;70990;50.618;7.346;2023-06-26T17:34:53;5.82;;;1.40;;